sensor_id;sensor_type;location;lat;lon;timestamp;pressure;altitude;pressure_sealevel;temperature;humidity
83514;BME280;73447;53.262;10.424;2023-12-29T00:01:50;100413.09;;;9.16;66.87
83514;BME280;73447;53.262;10.424;2023-12-29T00:04:15;100408.56;;;9.05;68.21
83514;BME280;73447;53.262;10.424;2023-12-29T00:06:41;100393.59;;;9.09;67.70
83514;BME280;73447;53.262;10.424;2023-12-29T00:09:07;100389.56;;;9.12;67.26
83514;BME280;73447;53.262;10.424;2023-12-29T00:11:32;100390.41;;;9.12;67.48
83514;BME280;73447;53.262;10.424;2023-12-29T00:13:58;100393.34;;;9.10;67.62
83514;BME280;73447;53.262;10.424;2023-12-29T00:16:24;100400.63;;;9.10;67.34
83514;BME280;73447;53.262;10.424;2023-12-29T00:18:49;100399.72;;;9.21;67.63
83514;BME280;73447;53.262;10.424;2023-12-29T00:21:14;100384.56;;;9.32;66.21
83514;BME280;73447;53.262;10.424;2023-12-29T00:23:40;100405.59;;;9.18;67.58
83514;BME280;73447;53.262;10.424;2023-12-29T00:26:05;100389.41;;;9.18;67.20
83514;BME280;73447;53.262;10.424;2023-12-29T00:28:30;100386.84;;;9.23;67.28
83514;BME280;73447;53.262;10.424;2023-12-29T00:30:56;100376.94;;;9.12;68.20
83514;BME280;73447;53.262;10.424;2023-12-29T00:33:21;100382.91;;;9.14;67.85
83514;BME280;73447;53.262;10.424;2023-12-29T00:35:47;100367.22;;;9.11;67.61
83514;BME280;73447;53.262;10.424;2023-12-29T00:38:12;100382.50;;;9.22;67.32
83514;BME280;73447;53.262;10.424;2023-12-29T00:40:38;100377.69;;;9.24;67.50
83514;BME280;73447;53.262;10.424;2023-12-29T00:43:03;100363.09;;;9.20;67.35
83514;BME280;73447;53.262;10.424;2023-12-29T00:45:29;100363.09;;;9.20;67.78
83514;BME280;73447;53.262;10.424;2023-12-29T00:48:01;100371.56;;;9.29;67.13
83514;BME280;73447;53.262;10.424;2023-12-29T00:50:27;100359.91;;;9.23;67.45
83514;BME280;73447;53.262;10.424;2023-12-29T00:52:53;100352.38;;;9.25;67.67
83514;BME280;73447;53.262;10.424;2023-12-29T00:55:19;100349.38;;;9.22;67.80
83514;BME280;73447;53.262;10.424;2023-12-29T00:57:44;100353.53;;;9.29;67.69
83514;BME280;73447;53.262;10.424;2023-12-29T01:00:11;100343.13;;;9.21;67.90
83514;BME280;73447;53.262;10.424;2023-12-29T01:02:38;100340.38;;;9.16;68.21
83514;BME280;73447;53.262;10.424;2023-12-29T01:05:03;100337.97;;;9.03;69.34
83514;BME280;73447;53.262;10.424;2023-12-29T01:07:29;100334.53;;;8.90;70.50
83514;BME280;73447;53.262;10.424;2023-12-29T01:09:54;100326.84;;;8.82;71.32
83514;BME280;73447;53.262;10.424;2023-12-29T01:12:20;100328.66;;;8.77;72.07
83514;BME280;73447;53.262;10.424;2023-12-29T01:14:45;100327.09;;;8.81;72.31
83514;BME280;73447;53.262;10.424;2023-12-29T01:17:11;100326.66;;;8.72;71.82
83514;BME280;73447;53.262;10.424;2023-12-29T01:19:36;100336.78;;;8.65;72.98
83514;BME280;73447;53.262;10.424;2023-12-29T01:22:01;100336.97;;;8.75;72.48
83514;BME280;73447;53.262;10.424;2023-12-29T01:24:27;100333.88;;;8.83;71.77
83514;BME280;73447;53.262;10.424;2023-12-29T01:26:52;100326.53;;;8.79;71.86
83514;BME280;73447;53.262;10.424;2023-12-29T01:29:18;100317.91;;;8.94;71.01
83514;BME280;73447;53.262;10.424;2023-12-29T01:31:43;100332.25;;;8.99;71.01
83514;BME280;73447;53.262;10.424;2023-12-29T01:34:09;100332.59;;;9.03;71.17
83514;BME280;73447;53.262;10.424;2023-12-29T01:36:34;100336.75;;;8.94;71.62
83514;BME280;73447;53.262;10.424;2023-12-29T01:38:59;100327.19;;;8.86;71.50
83514;BME280;73447;53.262;10.424;2023-12-29T01:41:25;100330.81;;;8.91;71.20
83514;BME280;73447;53.262;10.424;2023-12-29T01:46:28;100306.41;;;8.98;71.26
83514;BME280;73447;53.262;10.424;2023-12-29T01:48:54;100312.69;;;9.04;70.79
83514;BME280;73447;53.262;10.424;2023-12-29T01:51:21;100322.75;;;9.08;70.50
83514;BME280;73447;53.262;10.424;2023-12-29T01:53:49;100329.03;;;9.14;70.57
83514;BME280;73447;53.262;10.424;2023-12-29T01:56:16;100329.03;;;9.14;70.50
83514;BME280;73447;53.262;10.424;2023-12-29T01:58:43;100321.50;;;9.16;70.88
83514;BME280;73447;53.262;10.424;2023-12-29T02:01:08;100307.97;;;9.28;70.00
83514;BME280;73447;53.262;10.424;2023-12-29T02:03:35;100315.78;;;9.13;70.66
83514;BME280;73447;53.262;10.424;2023-12-29T02:06:01;100296.84;;;9.24;69.96
83514;BME280;73447;53.262;10.424;2023-12-29T02:08:27;100304.22;;;9.12;70.33
83514;BME280;73447;53.262;10.424;2023-12-29T02:10:53;100308.97;;;9.22;70.17
83514;BME280;73447;53.262;10.424;2023-12-29T02:13:19;100318.91;;;9.21;70.91
83514;BME280;73447;53.262;10.424;2023-12-29T02:15:46;100311.03;;;9.03;71.87
83514;BME280;73447;53.262;10.424;2023-12-29T02:18:14;100306.13;;;8.83;73.37
83514;BME280;73447;53.262;10.424;2023-12-29T02:20:41;100311.69;;;8.93;72.07
83514;BME280;73447;53.262;10.424;2023-12-29T02:23:07;100311.69;;;8.93;72.64
83514;BME280;73447;53.262;10.424;2023-12-29T02:25:33;100310.69;;;8.82;73.69
83514;BME280;73447;53.262;10.424;2023-12-29T02:30:51;100304.94;;;8.62;76.12
83514;BME280;73447;53.262;10.424;2023-12-29T02:33:21;100293.56;;;8.31;77.63
83514;BME280;73447;53.262;10.424;2023-12-29T02:35:48;100294.59;;;8.42;76.50
83514;BME280;73447;53.262;10.424;2023-12-29T02:38:16;100287.44;;;8.47;76.22
83514;BME280;73447;53.262;10.424;2023-12-29T02:40:42;100294.00;;;8.51;76.39
83514;BME280;73447;53.262;10.424;2023-12-29T02:43:09;100294.16;;;8.45;76.67
83514;BME280;73447;53.262;10.424;2023-12-29T02:45:34;100272.63;;;8.45;76.14
83514;BME280;73447;53.262;10.424;2023-12-29T02:47:59;100287.44;;;8.47;75.99
83514;BME280;73447;53.262;10.424;2023-12-29T02:50:25;100271.97;;;8.54;75.50
83514;BME280;73447;53.262;10.424;2023-12-29T02:52:50;100278.00;;;8.45;76.83
83514;BME280;73447;53.262;10.424;2023-12-29T02:55:16;100269.09;;;8.44;77.05
83514;BME280;73447;53.262;10.424;2023-12-29T02:57:41;100265.13;;;8.35;77.25
83514;BME280;73447;53.262;10.424;2023-12-29T03:00:07;100261.00;;;8.44;76.55
83514;BME280;73447;53.262;10.424;2023-12-29T03:02:32;100263.63;;;8.27;77.74
83514;BME280;73447;53.262;10.424;2023-12-29T03:04:58;100264.75;;;8.14;79.93
83514;BME280;73447;53.262;10.424;2023-12-29T03:07:24;100260.88;;;8.10;80.27
83514;BME280;73447;53.262;10.424;2023-12-29T03:09:49;100268.50;;;8.02;80.87
83514;BME280;73447;53.262;10.424;2023-12-29T03:12:15;100258.34;;;7.92;81.87
83514;BME280;73447;53.262;10.424;2023-12-29T03:14:40;100246.09;;;7.84;82.49
83514;BME280;73447;53.262;10.424;2023-12-29T03:17:06;100241.88;;;7.88;83.14
83514;BME280;73447;53.262;10.424;2023-12-29T03:19:31;100241.34;;;7.74;84.45
83514;BME280;73447;53.262;10.424;2023-12-29T03:21:56;100240.75;;;7.72;84.78
83514;BME280;73447;53.262;10.424;2023-12-29T03:24:22;100220.41;;;7.76;84.18
83514;BME280;73447;53.262;10.424;2023-12-29T03:26:47;100226.88;;;7.52;85.34
83514;BME280;73447;53.262;10.424;2023-12-29T03:29:13;100224.75;;;7.54;85.51
83514;BME280;73447;53.262;10.424;2023-12-29T03:31:38;100222.44;;;7.69;84.34
83514;BME280;73447;53.262;10.424;2023-12-29T03:34:04;100207.66;;;7.84;83.44
83514;BME280;73447;53.262;10.424;2023-12-29T03:36:30;100210.97;;;7.62;84.69
83514;BME280;73447;53.262;10.424;2023-12-29T03:38:55;100196.72;;;7.61;84.61
83514;BME280;73447;53.262;10.424;2023-12-29T03:41:21;100199.53;;;7.55;86.00
83514;BME280;73447;53.262;10.424;2023-12-29T03:43:46;100212.16;;;7.54;86.20
83514;BME280;73447;53.262;10.424;2023-12-29T03:46:21;100219.16;;;7.43;86.14
83514;BME280;73447;53.262;10.424;2023-12-29T03:48:47;100211.22;;;7.49;86.73
83514;BME280;73447;53.262;10.424;2023-12-29T03:51:13;100205.13;;;7.65;85.67
83514;BME280;73447;53.262;10.424;2023-12-29T03:53:39;100209.44;;;7.78;84.65
83514;BME280;73447;53.262;10.424;2023-12-29T03:56:06;100201.59;;;7.76;85.19
83514;BME280;73447;53.262;10.424;2023-12-29T03:58:32;100194.84;;;7.62;86.06
83514;BME280;73447;53.262;10.424;2023-12-29T04:00:57;100191.25;;;7.45;87.36
83514;BME280;73447;53.262;10.424;2023-12-29T04:03:23;100178.88;;;7.43;88.06
83514;BME280;73447;53.262;10.424;2023-12-29T04:05:48;100176.88;;;7.39;88.56
83514;BME280;73447;53.262;10.424;2023-12-29T04:08:13;100190.44;;;7.32;88.42
83514;BME280;73447;53.262;10.424;2023-12-29T04:10:39;100184.81;;;7.46;88.45
83514;BME280;73447;53.262;10.424;2023-12-29T04:13:04;100200.47;;;7.49;87.45
83514;BME280;73447;53.262;10.424;2023-12-29T04:15:30;100183.19;;;7.45;87.75
83514;BME280;73447;53.262;10.424;2023-12-29T04:17:55;100174.91;;;7.46;88.70
83514;BME280;73447;53.262;10.424;2023-12-29T04:20:21;100164.88;;;7.30;89.23
83514;BME280;73447;53.262;10.424;2023-12-29T04:22:46;100148.91;;;7.23;89.31
83514;BME280;73447;53.262;10.424;2023-12-29T04:25:12;100143.75;;;7.33;89.21
83514;BME280;73447;53.262;10.424;2023-12-29T04:27:39;100132.88;;;7.28;90.13
83514;BME280;73447;53.262;10.424;2023-12-29T04:30:04;100138.50;;;7.27;89.26
83514;BME280;73447;53.262;10.424;2023-12-29T04:32:30;100147.00;;;7.35;89.27
83514;BME280;73447;53.262;10.424;2023-12-29T04:34:56;100148.94;;;7.52;87.34
83514;BME280;73447;53.262;10.424;2023-12-29T04:37:21;100153.28;;;7.53;87.34
83514;BME280;73447;53.262;10.424;2023-12-29T04:39:46;100146.38;;;7.57;87.05
83514;BME280;73447;53.262;10.424;2023-12-29T04:42:12;100154.44;;;7.57;86.88
83514;BME280;73447;53.262;10.424;2023-12-29T04:44:37;100188.66;;;7.61;87.16
83514;BME280;73447;53.262;10.424;2023-12-29T04:47:03;100316.84;;;7.37;86.18
83514;BME280;73447;53.262;10.424;2023-12-29T04:49:29;100323.22;;;5.78;84.07
83514;BME280;73447;53.262;10.424;2023-12-29T04:51:54;100303.59;;;4.58;84.36
83514;BME280;73447;53.262;10.424;2023-12-29T04:54:19;100284.22;;;4.24;87.45
83514;BME280;73447;53.262;10.424;2023-12-29T04:56:45;100276.44;;;4.16;87.28
83514;BME280;73447;53.262;10.424;2023-12-29T04:59:10;100277.34;;;3.90;88.40
83514;BME280;73447;53.262;10.424;2023-12-29T05:01:35;100275.81;;;4.21;89.03
83514;BME280;73447;53.262;10.424;2023-12-29T05:04:01;100282.28;;;3.93;88.39
83514;BME280;73447;53.262;10.424;2023-12-29T05:06:27;100295.53;;;4.20;89.11
83514;BME280;73447;53.262;10.424;2023-12-29T05:08:52;100295.31;;;4.28;88.43
83514;BME280;73447;53.262;10.424;2023-12-29T05:11:17;100301.53;;;4.54;87.61
83514;BME280;73447;53.262;10.424;2023-12-29T05:13:43;100307.59;;;4.42;88.54
83514;BME280;73447;53.262;10.424;2023-12-29T05:16:08;100300.88;;;4.65;88.78
83514;BME280;73447;53.262;10.424;2023-12-29T05:18:33;100288.91;;;4.74;88.90
83514;BME280;73447;53.262;10.424;2023-12-29T05:20:59;100285.50;;;4.86;89.02
83514;BME280;73447;53.262;10.424;2023-12-29T05:23:24;100276.44;;;4.87;89.20
83514;BME280;73447;53.262;10.424;2023-12-29T05:25:50;100303.72;;;4.70;90.03
83514;BME280;73447;53.262;10.424;2023-12-29T05:28:16;100296.84;;;4.88;90.00
83514;BME280;73447;53.262;10.424;2023-12-29T05:30:41;100300.53;;;4.87;90.29
83514;BME280;73447;53.262;10.424;2023-12-29T05:33:06;100308.22;;;4.76;90.22
83514;BME280;73447;53.262;10.424;2023-12-29T05:35:32;100303.81;;;4.89;89.93
83514;BME280;73447;53.262;10.424;2023-12-29T05:37:57;100284.72;;;5.10;89.11
83514;BME280;73447;53.262;10.424;2023-12-29T05:40:22;100282.78;;;5.17;89.30
83514;BME280;73447;53.262;10.424;2023-12-29T05:42:48;100275.94;;;5.03;89.83
83514;BME280;73447;53.262;10.424;2023-12-29T05:45:16;100260.84;;;5.09;89.16
83514;BME280;73447;53.262;10.424;2023-12-29T05:47:41;100263.63;;;4.95;90.02
83514;BME280;73447;53.262;10.424;2023-12-29T05:50:07;100270.28;;;4.86;89.87
83514;BME280;73447;53.262;10.424;2023-12-29T05:52:33;100253.72;;;4.96;89.87
83514;BME280;73447;53.262;10.424;2023-12-29T05:54:58;100262.13;;;5.06;89.45
83514;BME280;73447;53.262;10.424;2023-12-29T05:57:24;100274.69;;;4.74;90.00
83514;BME280;73447;53.262;10.424;2023-12-29T05:59:49;100287.13;;;4.61;90.25
83514;BME280;73447;53.262;10.424;2023-12-29T06:02:14;100282.22;;;4.52;90.79
83514;BME280;73447;53.262;10.424;2023-12-29T06:04:40;100268.94;;;4.70;91.25
83514;BME280;73447;53.262;10.424;2023-12-29T06:07:06;100262.53;;;4.78;90.24
83514;BME280;73447;53.262;10.424;2023-12-29T06:09:31;100263.25;;;4.60;90.55
83514;BME280;73447;53.262;10.424;2023-12-29T06:11:56;100257.56;;;4.81;90.45
83514;BME280;73447;53.262;10.424;2023-12-29T06:14:22;100247.97;;;4.67;90.44
83514;BME280;73447;53.262;10.424;2023-12-29T06:16:47;100268.84;;;4.52;91.25
83514;BME280;73447;53.262;10.424;2023-12-29T06:19:13;100270.13;;;4.49;91.60
83514;BME280;73447;53.262;10.424;2023-12-29T06:21:42;100263.69;;;4.89;91.58
83514;BME280;73447;53.262;10.424;2023-12-29T06:24:09;100253.13;;;4.94;90.46
83514;BME280;73447;53.262;10.424;2023-12-29T06:26:35;100244.69;;;4.97;90.81
83514;BME280;73447;53.262;10.424;2023-12-29T06:29:00;100248.28;;;5.09;90.28
83514;BME280;73447;53.262;10.424;2023-12-29T06:31:26;100256.56;;;5.01;90.41
83514;BME280;73447;53.262;10.424;2023-12-29T06:33:51;100255.13;;;5.05;90.66
83514;BME280;73447;53.262;10.424;2023-12-29T06:36:17;100241.88;;;5.10;90.61
83514;BME280;73447;53.262;10.424;2023-12-29T06:38:42;100245.38;;;5.11;91.30
83514;BME280;73447;53.262;10.424;2023-12-29T06:41:11;100237.41;;;5.04;91.32
83514;BME280;73447;53.262;10.424;2023-12-29T06:43:37;100247.09;;;5.05;91.36
83514;BME280;73447;53.262;10.424;2023-12-29T06:46:02;100242.69;;;5.36;90.51
83514;BME280;73447;53.262;10.424;2023-12-29T06:48:28;100232.81;;;5.36;90.89
83514;BME280;73447;53.262;10.424;2023-12-29T06:50:54;100244.44;;;5.24;91.65
83514;BME280;73447;53.262;10.424;2023-12-29T06:53:19;100243.78;;;5.28;92.24
83514;BME280;73447;53.262;10.424;2023-12-29T06:55:45;100260.38;;;5.37;92.33
83514;BME280;73447;53.262;10.424;2023-12-29T06:58:10;100267.66;;;5.73;92.66
83514;BME280;73447;53.262;10.424;2023-12-29T07:00:39;100250.28;;;6.13;91.04
83514;BME280;73447;53.262;10.424;2023-12-29T07:03:04;100251.38;;;6.12;90.70
83514;BME280;73447;53.262;10.424;2023-12-29T07:05:29;100249.13;;;6.09;90.75
83514;BME280;73447;53.262;10.424;2023-12-29T07:07:55;100246.13;;;6.17;90.89
83514;BME280;73447;53.262;10.424;2023-12-29T07:10:20;100243.63;;;6.34;90.34
83514;BME280;73447;53.262;10.424;2023-12-29T07:12:46;100245.34;;;6.47;89.84
83514;BME280;73447;53.262;10.424;2023-12-29T07:15:11;100260.72;;;6.52;90.25
83514;BME280;73447;53.262;10.424;2023-12-29T07:17:39;100252.38;;;6.72;89.34
83514;BME280;73447;53.262;10.424;2023-12-29T07:20:05;100243.19;;;6.79;89.00
83514;BME280;73447;53.262;10.424;2023-12-29T07:22:32;100247.03;;;6.83;88.68
83514;BME280;73447;53.262;10.424;2023-12-29T07:24:58;100238.75;;;6.85;88.18
83514;BME280;73447;53.262;10.424;2023-12-29T07:27:23;100256.72;;;6.73;88.34
83514;BME280;73447;53.262;10.424;2023-12-29T07:29:49;100252.16;;;6.73;88.60
83514;BME280;73447;53.262;10.424;2023-12-29T07:32:14;100249.00;;;6.76;87.47
83514;BME280;73447;53.262;10.424;2023-12-29T07:34:40;100259.16;;;6.74;88.54
83514;BME280;73447;53.262;10.424;2023-12-29T07:37:06;100266.53;;;6.79;87.92
83514;BME280;73447;53.262;10.424;2023-12-29T07:39:31;100268.59;;;6.77;87.71
83514;BME280;73447;53.262;10.424;2023-12-29T07:41:57;100265.00;;;6.83;87.44
83514;BME280;73447;53.262;10.424;2023-12-29T07:44:22;100256.88;;;6.90;87.41
83514;BME280;73447;53.262;10.424;2023-12-29T07:46:48;100253.81;;;6.86;88.19
83514;BME280;73447;53.262;10.424;2023-12-29T07:49:13;100254.63;;;6.86;88.05
83514;BME280;73447;53.262;10.424;2023-12-29T07:51:44;100264.78;;;6.84;88.72
83514;BME280;73447;53.262;10.424;2023-12-29T07:54:10;100253.13;;;6.91;88.53
83514;BME280;73447;53.262;10.424;2023-12-29T07:56:36;100262.94;;;6.97;87.66
83514;BME280;73447;53.262;10.424;2023-12-29T07:59:03;100262.13;;;6.96;87.71
83514;BME280;73447;53.262;10.424;2023-12-29T08:01:29;100272.53;;;7.04;87.85
83514;BME280;73447;53.262;10.424;2023-12-29T08:03:54;100263.28;;;7.00;87.20
83514;BME280;73447;53.262;10.424;2023-12-29T08:06:19;100265.19;;;7.12;86.57
83514;BME280;73447;53.262;10.424;2023-12-29T08:08:45;100260.25;;;7.09;87.08
83514;BME280;73447;53.262;10.424;2023-12-29T08:11:14;100264.81;;;7.08;87.08
83514;BME280;73447;53.262;10.424;2023-12-29T08:13:47;100266.81;;;7.13;87.40
83514;BME280;73447;53.262;10.424;2023-12-29T08:16:13;100264.38;;;7.23;86.35
83514;BME280;73447;53.262;10.424;2023-12-29T08:18:38;100257.13;;;7.12;86.73
83514;BME280;73447;53.262;10.424;2023-12-29T08:21:04;100260.25;;;7.09;86.80
83514;BME280;73447;53.262;10.424;2023-12-29T08:23:29;100248.84;;;7.13;85.98
83514;BME280;73447;53.262;10.424;2023-12-29T08:25:56;100245.22;;;7.19;85.95
83514;BME280;73447;53.262;10.424;2023-12-29T08:28:23;100252.59;;;7.12;86.32
83514;BME280;73447;53.262;10.424;2023-12-29T08:30:49;100259.22;;;7.10;86.22
83514;BME280;73447;53.262;10.424;2023-12-29T08:33:14;100250.47;;;7.14;85.36
83514;BME280;73447;53.262;10.424;2023-12-29T08:35:41;100243.81;;;7.05;85.65
83514;BME280;73447;53.262;10.424;2023-12-29T08:38:06;100252.09;;;7.03;85.94
83514;BME280;73447;53.262;10.424;2023-12-29T08:40:32;100257.47;;;7.03;85.62
83514;BME280;73447;53.262;10.424;2023-12-29T08:42:57;100261.91;;;7.10;85.03
83514;BME280;73447;53.262;10.424;2023-12-29T08:45:23;100264.69;;;7.03;85.12
83514;BME280;73447;53.262;10.424;2023-12-29T08:47:48;100276.88;;;7.05;84.92
83514;BME280;73447;53.262;10.424;2023-12-29T08:50:14;100260.03;;;7.10;84.28
83514;BME280;73447;53.262;10.424;2023-12-29T08:52:40;100252.81;;;7.11;84.71
83514;BME280;73447;53.262;10.424;2023-12-29T08:55:06;100263.78;;;7.09;84.09
83514;BME280;73447;53.262;10.424;2023-12-29T08:57:31;100264.94;;;7.01;85.00
83514;BME280;73447;53.262;10.424;2023-12-29T08:59:57;100264.69;;;6.91;85.29
83514;BME280;73447;53.262;10.424;2023-12-29T09:02:22;100269.16;;;7.09;84.06
83514;BME280;73447;53.262;10.424;2023-12-29T09:04:48;100267.03;;;6.99;83.84
83514;BME280;73447;53.262;10.424;2023-12-29T09:07:13;100273.34;;;7.17;83.26
83514;BME280;73447;53.262;10.424;2023-12-29T09:09:38;100267.16;;;7.16;82.34
83514;BME280;73447;53.262;10.424;2023-12-29T09:12:04;100273.00;;;7.25;81.80
83514;BME280;73447;53.262;10.424;2023-12-29T09:14:30;100273.47;;;7.34;81.69
83514;BME280;73447;53.262;10.424;2023-12-29T09:16:57;100279.44;;;7.24;82.27
83514;BME280;73447;53.262;10.424;2023-12-29T09:19:23;100263.91;;;7.26;82.20
83514;BME280;73447;53.262;10.424;2023-12-29T09:21:48;100271.97;;;7.26;82.46
83514;BME280;73447;53.262;10.424;2023-12-29T09:24:13;100282.94;;;7.36;81.53
83514;BME280;73447;53.262;10.424;2023-12-29T09:26:39;100284.59;;;7.37;81.45
83514;BME280;73447;53.262;10.424;2023-12-29T09:29:04;100268.09;;;7.57;81.15
83514;BME280;73447;53.262;10.424;2023-12-29T09:31:30;100280.25;;;7.60;80.44
83514;BME280;73447;53.262;10.424;2023-12-29T09:33:55;100271.00;;;7.79;80.25
83514;BME280;73447;53.262;10.424;2023-12-29T09:36:22;100276.59;;;7.90;80.07
83514;BME280;73447;53.262;10.424;2023-12-29T09:38:47;100278.00;;;7.92;79.92
83514;BME280;73447;53.262;10.424;2023-12-29T09:41:15;100289.22;;;7.77;81.07
83514;BME280;73447;53.262;10.424;2023-12-29T09:43:41;100271.03;;;7.68;81.52
83514;BME280;73447;53.262;10.424;2023-12-29T09:46:08;100294.16;;;7.57;82.08
83514;BME280;73447;53.262;10.424;2023-12-29T09:48:36;100308.31;;;7.76;81.43
83514;BME280;73447;53.262;10.424;2023-12-29T09:51:07;100317.19;;;7.65;83.21
83514;BME280;73447;53.262;10.424;2023-12-29T09:53:34;100296.28;;;7.55;83.60
83514;BME280;73447;53.262;10.424;2023-12-29T09:56:02;100311.09;;;7.34;84.63
83514;BME280;73447;53.262;10.424;2023-12-29T09:58:28;100330.81;;;7.16;86.05
83514;BME280;73447;53.262;10.424;2023-12-29T10:00:54;100298.25;;;6.82;86.89
83514;BME280;73447;53.262;10.424;2023-12-29T10:03:19;100298.00;;;6.72;86.35
83514;BME280;73447;53.262;10.424;2023-12-29T10:05:50;100296.75;;;6.44;86.35
83514;BME280;73447;53.262;10.424;2023-12-29T10:08:17;100310.91;;;6.32;87.27
83514;BME280;73447;53.262;10.424;2023-12-29T10:10:44;100318.38;;;6.30;87.31
83514;BME280;73447;53.262;10.424;2023-12-29T10:13:11;100315.53;;;6.25;86.70
83514;BME280;73447;53.262;10.424;2023-12-29T10:15:49;100320.44;;;6.10;87.21
83514;BME280;73447;53.262;10.424;2023-12-29T10:18:32;100321.22;;;6.17;86.72
83514;BME280;73447;53.262;10.424;2023-12-29T10:23:45;100309.09;;;6.45;86.30
83514;BME280;73447;53.262;10.424;2023-12-29T10:26:14;100330.41;;;6.40;86.11
83514;BME280;73447;53.262;10.424;2023-12-29T10:28:40;100321.47;;;6.46;85.32
83514;BME280;73447;53.262;10.424;2023-12-29T10:31:06;100314.91;;;6.42;85.65
83514;BME280;73447;53.262;10.424;2023-12-29T10:33:31;100313.72;;;6.38;85.27
83514;BME280;73447;53.262;10.424;2023-12-29T10:38:28;100313.28;;;6.41;85.21
83514;BME280;73447;53.262;10.424;2023-12-29T10:40:53;100308.72;;;6.41;85.42
83514;BME280;73447;53.262;10.424;2023-12-29T10:43:23;100304.38;;;6.28;85.48
83514;BME280;73447;53.262;10.424;2023-12-29T10:45:48;100299.56;;;6.49;84.58
83514;BME280;73447;53.262;10.424;2023-12-29T10:48:21;100295.69;;;6.45;83.72
83514;BME280;73447;53.262;10.424;2023-12-29T10:50:49;100288.84;;;6.49;84.43
83514;BME280;73447;53.262;10.424;2023-12-29T10:53:15;100308.91;;;6.58;83.42
83514;BME280;73447;53.262;10.424;2023-12-29T10:55:43;100286.16;;;6.49;83.68
83514;BME280;73447;53.262;10.424;2023-12-29T10:58:08;100285.09;;;6.50;84.38
83514;BME280;73447;53.262;10.424;2023-12-29T11:00:34;100291.91;;;6.64;84.47
83514;BME280;73447;53.262;10.424;2023-12-29T11:02:59;100295.75;;;6.68;83.45
83514;BME280;73447;53.262;10.424;2023-12-29T11:05:28;100292.19;;;6.75;84.10
83514;BME280;73447;53.262;10.424;2023-12-29T11:07:54;100287.06;;;6.85;83.81
83514;BME280;73447;53.262;10.424;2023-12-29T11:10:20;100289.41;;;6.81;83.68
83514;BME280;73447;53.262;10.424;2023-12-29T11:12:47;100295.00;;;6.80;84.22
83514;BME280;73447;53.262;10.424;2023-12-29T11:15:14;100289.50;;;6.75;84.03
83514;BME280;73447;53.262;10.424;2023-12-29T11:17:41;100283.47;;;6.91;83.82
83514;BME280;73447;53.262;10.424;2023-12-29T11:20:14;100281.00;;;6.78;84.74
83514;BME280;73447;53.262;10.424;2023-12-29T11:22:41;100282.34;;;6.99;84.40
83514;BME280;73447;53.262;10.424;2023-12-29T11:25:08;100289.56;;;7.10;83.82
83514;BME280;73447;53.262;10.424;2023-12-29T11:27:34;100296.78;;;6.86;85.24
83514;BME280;73447;53.262;10.424;2023-12-29T11:30:01;100292.34;;;6.92;84.87
83514;BME280;73447;53.262;10.424;2023-12-29T11:35:33;100295.59;;;6.94;84.73
83514;BME280;73447;53.262;10.424;2023-12-29T11:38:18;100302.72;;;6.88;84.79
83514;BME280;73447;53.262;10.424;2023-12-29T11:43:40;100303.81;;;6.99;84.57
83514;BME280;73447;53.262;10.424;2023-12-29T11:46:05;100290.63;;;6.97;85.32
83514;BME280;73447;53.262;10.424;2023-12-29T11:48:53;100292.34;;;6.92;84.83
83514;BME280;73447;53.262;10.424;2023-12-29T11:51:30;100292.44;;;6.85;85.83
83514;BME280;73447;53.262;10.424;2023-12-29T11:53:56;100288.00;;;6.79;85.96
83514;BME280;73447;53.262;10.424;2023-12-29T11:56:22;100299.41;;;6.74;85.26
83514;BME280;73447;53.262;10.424;2023-12-29T11:58:47;100285.00;;;6.57;85.59
83514;BME280;73447;53.262;10.424;2023-12-29T12:01:13;100281.38;;;6.51;86.40
83514;BME280;73447;53.262;10.424;2023-12-29T12:03:38;100272.56;;;6.62;85.11
83514;BME280;73447;53.262;10.424;2023-12-29T12:06:04;100271.53;;;6.45;87.12
83514;BME280;73447;53.262;10.424;2023-12-29T12:08:34;100269.22;;;6.48;86.82
83514;BME280;73447;53.262;10.424;2023-12-29T12:13:54;100253.81;;;6.44;85.98
83514;BME280;73447;53.262;10.424;2023-12-29T12:19:13;100235.19;;;6.49;87.15
83514;BME280;73447;53.262;10.424;2023-12-29T12:21:38;100241.72;;;6.53;85.80
83514;BME280;73447;53.262;10.424;2023-12-29T12:24:05;100251.00;;;6.39;86.47
83514;BME280;73447;53.262;10.424;2023-12-29T12:26:31;100257.72;;;6.29;86.71
83514;BME280;73447;53.262;10.424;2023-12-29T12:28:57;100228.25;;;6.41;86.39
83514;BME280;73447;53.262;10.424;2023-12-29T12:31:23;100237.59;;;6.39;86.63
83514;BME280;73447;53.262;10.424;2023-12-29T12:33:58;100245.06;;;6.48;86.01
83514;BME280;73447;53.262;10.424;2023-12-29T12:36:25;100235.91;;;6.56;86.00
83514;BME280;73447;53.262;10.424;2023-12-29T12:38:56;100254.69;;;6.56;85.44
83514;BME280;73447;53.262;10.424;2023-12-29T12:41:23;100248.72;;;6.54;85.45
83514;BME280;73447;53.262;10.424;2023-12-29T12:46:23;100249.63;;;6.48;85.26
83514;BME280;73447;53.262;10.424;2023-12-29T12:48:52;100260.50;;;6.53;85.81
83514;BME280;73447;53.262;10.424;2023-12-29T12:51:19;100248.03;;;6.59;85.14
83514;BME280;73447;53.262;10.424;2023-12-29T12:53:46;100225.53;;;6.72;84.85
83514;BME280;73447;53.262;10.424;2023-12-29T12:56:13;100228.72;;;6.80;85.07
83514;BME280;73447;53.262;10.424;2023-12-29T12:58:39;100208.66;;;6.83;84.51
83514;BME280;73447;53.262;10.424;2023-12-29T13:01:05;100200.94;;;6.75;84.04
83514;BME280;73447;53.262;10.424;2023-12-29T13:03:31;100209.22;;;6.85;82.59
83514;BME280;73447;53.262;10.424;2023-12-29T13:05:58;100207.50;;;6.79;82.53
83514;BME280;73447;53.262;10.424;2023-12-29T13:08:24;100225.06;;;6.63;82.50
83514;BME280;73447;53.262;10.424;2023-12-29T13:10:51;100221.31;;;6.52;82.69